Three Mile, North Carolina
Current Conditions -  °F | °C
As of 6:55 PM on Friday 28 Nov 2014 (Local Time) from KTNB Reporting Station
Clear Clear  
Wind Chill: -2°   Ceiling: Unl
Heat Index: -2°   Visibility: 10mi
Dew Point: -6°   Wind: 0mph
Humidity: 71%   Direction: NA
Pressure: 30.21"   Gusts: NA
Location:  36.0227°N, 81.9499°W
Report Text: KTNB 282355Z AUTO 00000KT 10SM CLR M02/M06 A3021 RMK AO2 T10161062 10002 21024
Loading
Personal Weather Stations






























Interactive Weather Map New forecast layout! Learn more

10-Day Weather Forecast

Advertisements
Track Severe Weather on mobile